Time;durP1;ratioP1;P1;durP2;ratioP2;P2;SDS_P1;SDS_P2;PMS_P1;PMS_P2;Temp;Humidity;BMP_temperature;BMP_pressure;BME280_temperature;BME280_humidity;BME280_pressure;Samples;Min_cycle;Max_cycle;Signal;HPM_P1;HPM_P2
2023/07/24 00:00:09;;;;;;;9.60;5.87;;;;;;;16.63;100.00;99885.00;5032616;28;20180;-69
2023/07/24 00:02:34;;;;;;;9.03;5.17;;;;;;;16.81;100.00;99919.81;5039397;28;20185;-69
2023/07/24 00:05:00;;;;;;;7.40;5.47;;;;;;;16.99;100.00;99958.38;5032169;28;20207;-69
2023/07/24 00:07:25;;;;;;;6.83;5.10;;;;;;;16.98;100.00;99964.84;5032563;28;20250;-69
2023/07/24 00:09:51;;;;;;;7.10;5.20;;;;;;;16.99;100.00;99969.19;5030869;28;20188;-69
2023/07/24 00:12:16;;;;;;;9.23;5.53;;;;;;;16.89;100.00;99943.69;5025781;28;20192;-69
2023/07/24 00:14:41;;;;;;;8.60;5.00;;;;;;;16.88;100.00;99942.03;5028122;28;20184;-69
2023/07/24 00:17:07;;;;;;;8.30;5.63;;;;;;;17.01;100.00;99950.78;5023217;28;20204;-69
2023/07/24 00:19:32;;;;;;;6.43;5.00;;;;;;;16.96;100.00;99956.19;5026481;28;20196;-69
2023/07/24 00:21:58;;;;;;;9.07;5.33;;;;;;;16.69;100.00;99919.97;5027879;28;20188;-69
2023/07/24 00:24:23;;;;;;;10.33;5.40;;;;;;;16.81;100.00;99936.06;5024989;28;20184;-69
2023/07/24 00:26:48;;;;;;;14.33;5.23;;;;;;;16.70;100.00;99935.13;5024802;28;20204;-69
2023/07/24 00:29:14;;;;;;;10.50;5.40;;;;;;;16.93;100.00;99960.22;5027894;28;20200;-69
2023/07/24 00:31:39;;;;;;;7.93;5.33;;;;;;;16.94;100.00;99949.13;5026111;28;20736;-69
2023/07/24 00:34:05;;;;;;;8.43;5.80;;;;;;;16.54;100.00;99884.66;5026036;28;20248;-69
2023/07/24 00:36:30;;;;;;;7.67;5.90;;;;;;;16.77;100.00;99931.41;5031494;28;20196;-69
2023/07/24 00:38:55;;;;;;;7.47;5.53;;;;;;;16.85;100.00;99952.59;5028862;28;20673;-69
2023/07/24 00:41:21;;;;;;;6.90;5.40;;;;;;;16.96;100.00;99965.13;5025676;28;20198;-69
2023/07/24 00:43:46;;;;;;;6.33;4.97;;;;;;;17.01;100.00;99959.75;5024384;28;20181;-69
2023/07/24 00:46:12;;;;;;;5.80;4.60;;;;;;;16.56;100.00;99900.66;5031591;28;20696;-69
2023/07/24 00:48:39;;;;;;;8.37;5.20;;;;;;;16.85;100.00;99941.75;5030138;28;20186;-68
2023/07/24 00:51:05;;;;;;;7.23;5.10;;;;;;;16.78;100.00;99946.56;5033510;28;20434;-69
2023/07/24 00:53:31;;;;;;;10.20;5.50;;;;;;;16.88;100.00;99968.31;5035626;28;20457;-69
2023/07/24 00:55:56;;;;;;;9.00;4.70;;;;;;;16.86;100.00;99963.16;5030073;28;20517;-69
2023/07/24 00:58:22;;;;;;;8.37;5.43;;;;;;;16.92;100.00;99975.66;5030827;28;20224;-68
2023/07/24 01:00:48;;;;;;;6.20;4.70;;;;;;;16.69;100.00;99930.81;5032281;28;20184;-69
2023/07/24 01:03:14;;;;;;;8.00;5.10;;;;;;;16.77;100.00;99964.72;5033843;28;20195;-69
2023/07/24 01:05:41;;;;;;;8.17;5.07;;;;;;;16.78;100.00;99968.25;5032769;28;20534;-69
2023/07/24 01:08:06;;;;;;;8.57;5.37;;;;;;;16.79;100.00;99965.28;5034503;28;20271;-69
2023/07/24 01:10:32;;;;;;;8.07;5.33;;;;;;;16.58;100.00;99955.38;5030567;28;20478;-68
2023/07/24 01:13:05;;;;;;;9.70;5.70;;;;;;;16.77;100.00;99955.78;5033690;28;20188;-69
2023/07/24 01:15:41;;;;;;;7.10;4.93;;;;;;;16.80;100.00;99976.94;5031731;28;20206;-69
2023/07/24 01:18:10;;;;;;;7.80;5.23;;;;;;;16.49;100.00;99945.03;5024723;28;20450;-69
2023/07/24 01:20:46;;;;;;;7.50;5.40;;;;;;;16.75;100.00;99985.81;5030955;28;20435;-69
2023/07/24 01:23:26;;;;;;;8.43;6.27;;;;;;;16.75;100.00;99993.94;5026884;28;20443;-69
2023/07/24 01:25:53;;;;;;;8.60;5.80;;;;;;;16.72;100.00;99989.84;5030843;28;20526;-69
2023/07/24 01:28:19;;;;;;;7.27;5.37;;;;;;;16.40;100.00;99954.69;5023775;28;20663;-68
2023/07/24 01:30:44;;;;;;;8.30;5.10;;;;;;;16.59;100.00;99967.81;5028946;28;21463;-69
2023/07/24 01:33:10;;;;;;;7.67;5.30;;;;;;;16.65;100.00;99996.56;5028233;28;20242;-69
2023/07/24 01:35:38;;;;;;;7.90;5.50;;;;;;;16.52;100.00;99969.91;5029064;28;20265;-69
2023/07/24 01:38:04;;;;;;;7.67;5.60;;;;;;;16.81;100.00;100022.72;5030935;28;20230;-68
2023/07/24 01:40:31;;;;;;;9.13;6.17;;;;;;;16.51;100.00;99993.47;5026792;28;20533;-69
2023/07/24 01:42:59;;;;;;;9.57;6.20;;;;;;;16.52;100.00;99984.28;5022358;28;20394;-69
2023/07/24 01:45:24;;;;;;;8.80;6.10;;;;;;;16.71;100.00;100011.78;5024169;28;20528;-68
2023/07/24 01:47:50;;;;;;;8.20;6.23;;;;;;;16.61;100.00;100017.94;5023982;28;20461;-69
2023/07/24 01:50:15;;;;;;;8.60;5.33;;;;;;;16.62;100.00;100024.16;5027706;28;20900;-69
2023/07/24 01:52:41;;;;;;;8.10;6.10;;;;;;;16.62;100.00;100040.41;5027672;28;20681;-68
2023/07/24 01:55:07;;;;;;;7.07;5.80;;;;;;;16.25;100.00;99989.72;5024826;28;20187;-69
2023/07/24 01:57:32;;;;;;;8.20;6.50;;;;;;;16.16;100.00;100004.81;5027237;28;20257;-69
2023/07/24 01:59:58;;;;;;;10.45;7.20;;;;;;;16.54;100.00;100055.22;5020781;28;21853;-69
2023/07/24 02:02:23;;;;;;;9.80;7.37;;;;;;;16.43;100.00;100048.06;5026907;28;20207;-68
2023/07/24 02:04:48;;;;;;;11.20;7.70;;;;;;;16.42;100.00;100049.97;5026736;28;20191;-69
2023/07/24 02:07:14;;;;;;;8.40;7.03;;;;;;;16.57;100.00;100075.53;5028008;28;20265;-69
2023/07/24 02:09:39;;;;;;;10.07;8.27;;;;;;;16.61;100.00;100082.91;5030766;28;20184;-69
2023/07/24 02:12:05;;;;;;;9.03;7.77;;;;;;;16.37;100.00;100073.47;5036739;28;20184;-69
2023/07/24 02:14:31;;;;;;;8.20;7.20;;;;;;;16.39;100.00;100082.97;5035205;28;22525;-69
2023/07/24 02:16:56;;;;;;;11.30;8.07;;;;;;;16.43;100.00;100096.78;5030897;28;20454;-69
2023/07/24 02:19:22;;;;;;;8.83;7.43;;;;;;;16.24;100.00;100070.09;5027101;28;20195;-69
2023/07/24 02:21:47;;;;;;;10.97;8.10;;;;;;;16.44;100.00;100104.66;5029543;28;20191;-68
2023/07/24 02:24:13;;;;;;;10.03;7.63;;;;;;;16.37;100.00;100114.06;5029953;28;20271;-69
2023/07/24 02:26:38;;;;;;;9.90;7.87;;;;;;;15.99;100.00;100065.22;5030607;28;20603;-69
2023/07/24 02:29:03;;;;;;;10.83;7.70;;;;;;;16.34;100.00;100095.63;5028009;28;20677;-69
2023/07/24 02:31:29;;;;;;;8.27;7.47;;;;;;;16.35;100.00;100135.97;5025445;28;20195;-69
2023/07/24 02:33:54;;;;;;;8.80;7.70;;;;;;;16.52;100.00;100133.19;5028769;28;20192;-69
2023/07/24 02:36:20;;;;;;;10.40;7.90;;;;;;;16.24;100.00;100131.50;5030020;28;21136;-69
2023/07/24 02:38:45;;;;;;;11.13;7.73;;;;;;;16.27;100.00;100152.66;5026181;28;20733;-69
2023/07/24 02:41:10;;;;;;;8.80;7.43;;;;;;;16.36;100.00;100175.50;5029676;28;20184;-69
2023/07/24 02:43:36;;;;;;;8.63;6.83;;;;;;;16.52;100.00;100181.06;5028619;28;20652;-68
2023/07/24 02:46:02;;;;;;;9.90;8.20;;;;;;;16.33;100.00;100169.78;5033698;28;21111;-69
2023/07/24 02:48:28;;;;;;;9.23;8.27;;;;;;;16.21;100.00;100142.84;5034471;28;20195;-69
2023/07/24 02:50:53;;;;;;;10.87;9.50;;;;;;;16.36;100.00;100197.13;5028087;28;20467;-69
2023/07/24 02:53:19;;;;;;;13.23;9.50;;;;;;;16.43;100.00;100205.91;5027762;28;20526;-69
2023/07/24 02:55:44;;;;;;;10.73;9.23;;;;;;;16.43;100.00;100208.59;5031053;28;20649;-68
2023/07/24 02:58:14;;;;;;;11.97;9.10;;;;;;;16.47;100.00;100233.28;5029654;28;20220;-69
2023/07/24 03:00:40;;;;;;;11.20;8.80;;;;;;;16.45;100.00;100227.28;5025762;28;20181;-69
2023/07/24 03:03:05;;;;;;;8.90;8.00;;;;;;;16.63;100.00;100236.97;5031439;28;21180;-69
2023/07/24 03:05:31;;;;;;;11.13;9.83;;;;;;;16.53;100.00;100232.25;5034955;28;21039;-69
2023/07/24 03:07:57;;;;;;;9.87;8.87;;;;;;;16.40;100.00;100240.75;5032135;28;20599;-69
2023/07/24 03:10:23;;;;;;;9.00;8.20;;;;;;;16.58;100.00;100245.06;5028434;28;20437;-69
2023/07/24 03:12:49;;;;;;;9.30;8.30;;;;;;;16.32;100.00;100223.09;5032026;28;20188;-69
2023/07/24 03:15:14;;;;;;;10.00;9.00;;;;;;;16.02;100.00;100191.84;5030897;28;20441;-69
2023/07/24 03:17:39;;;;;;;9.63;8.63;;;;;;;16.43;100.00;100249.22;5028222;28;20203;-68
2023/07/24 03:20:10;;;;;;;10.13;9.13;;;;;;;16.56;100.00;100275.06;5022449;28;20651;-69
2023/07/24 03:22:35;;;;;;;11.10;9.70;;;;;;;16.03;100.00;100192.69;5028963;28;20188;-69
2023/07/24 03:25:01;;;;;;;10.30;9.20;;;;;;;16.48;100.00;100273.63;5031244;28;21048;-69
2023/07/24 03:27:26;;;;;;;10.40;9.30;;;;;;;16.56;100.00;100291.31;5026296;28;20208;-69
2023/07/24 03:29:52;;;;;;;12.10;8.73;;;;;;;16.52;100.00;100290.19;5031147;28;20191;-68
2023/07/24 03:32:17;;;;;;;11.07;9.03;;;;;;;16.60;100.00;100284.31;5027512;28;20184;-69
2023/07/24 03:34:43;;;;;;;11.90;9.30;;;;;;;16.59;100.00;100307.06;5029356;28;20287;-69
2023/07/24 03:37:08;;;;;;;11.20;8.70;;;;;;;16.38;100.00;100262.66;5028078;28;20229;-68
2023/07/24 03:39:33;;;;;;;9.83;7.93;;;;;;;16.58;100.00;100301.91;5025154;28;20192;-69
2023/07/24 03:41:59;;;;;;;8.33;7.43;;;;;;;16.44;100.00;100294.16;5028653;28;20199;-69
2023/07/24 03:44:24;;;;;;;10.30;8.10;;;;;;;16.59;100.00;100312.47;5025407;28;20195;-69
2023/07/24 03:46:50;;;;;;;11.10;8.00;;;;;;;16.42;100.00;100279.22;5028436;28;20204;-69
2023/07/24 03:49:15;;;;;;;8.83;7.80;;;;;;;16.41;100.00;100291.13;5028723;28;20266;-68
2023/07/24 03:51:40;;;;;;;9.40;8.40;;;;;;;15.79;100.00;100192.06;5027142;28;20194;-68
2023/07/24 03:54:06;;;;;;;9.87;7.37;;;;;;;16.48;100.00;100297.97;5027551;28;20204;-69
2023/07/24 03:56:31;;;;;;;12.10;8.23;;;;;;;16.28;100.00;100263.34;5028162;28;20199;-69
2023/07/24 03:58:57;;;;;;;9.80;7.77;;;;;;;16.61;100.00;100328.47;5029150;28;20342;-68
2023/07/24 04:01:22;;;;;;;9.10;7.13;;;;;;;16.28;100.00;100276.06;5027031;28;20191;-68
2023/07/24 04:03:47;;;;;;;7.40;6.40;;;;;;;16.50;100.00;100322.91;5022806;28;20185;-69
2023/07/24 04:06:13;;;;;;;10.77;8.13;;;;;;;16.44;100.00;100307.69;5029072;28;20250;-69
2023/07/24 04:08:38;;;;;;;8.80;7.00;;;;;;;16.66;100.00;100339.34;5024493;28;21075;-69
2023/07/24 04:11:05;;;;;;;11.47;8.30;;;;;;;16.58;100.00;100340.63;5030756;28;20771;-68
2023/07/24 04:13:30;;;;;;;9.40;6.80;;;;;;;16.58;100.00;100329.78;5033476;28;20245;-68
2023/07/24 04:15:57;;;;;;;10.43;6.50;;;;;;;16.76;100.00;100358.47;5029001;28;21007;-69
2023/07/24 04:18:22;;;;;;;10.10;7.70;;;;;;;16.49;100.00;100315.06;5031857;28;20192;-69
2023/07/24 04:20:48;;;;;;;9.37;7.33;;;;;;;16.47;100.00;100341.56;5031743;28;20446;-69
2023/07/24 04:23:13;;;;;;;8.47;6.87;;;;;;;16.64;100.00;100355.88;5033481;28;20233;-69
2023/07/24 04:25:39;;;;;;;11.07;7.63;;;;;;;16.62;100.00;100362.59;5028387;28;20204;-69
2023/07/24 04:28:04;;;;;;;8.77;6.70;;;;;;;16.54;100.00;100342.19;5028320;28;20203;-69
2023/07/24 04:30:29;;;;;;;7.50;6.43;;;;;;;16.68;100.00;100354.28;5028203;28;25911;-69
2023/07/24 04:32:55;;;;;;;10.00;7.13;;;;;;;16.69;100.00;100358.66;5029057;28;20560;-69
2023/07/24 04:35:20;;;;;;;8.70;7.37;;;;;;;16.57;100.00;100344.38;5029434;28;20179;-69
2023/07/24 04:37:46;;;;;;;8.37;7.40;;;;;;;16.61;100.00;100321.16;5027737;28;20319;-69
2023/07/24 04:40:11;;;;;;;10.30;7.50;;;;;;;16.38;100.00;100305.16;5030357;28;20192;-69
2023/07/24 04:42:37;;;;;;;9.17;7.83;;;;;;;16.48;100.00;100316.91;5028100;28;20302;-69
2023/07/24 04:45:03;;;;;;;7.40;6.57;;;;;;;16.68;100.00;100332.63;5029140;28;20188;-69
2023/07/24 04:47:28;;;;;;;9.27;6.70;;;;;;;16.74;100.00;100338.91;5030917;28;20227;-69
2023/07/24 04:49:55;;;;;;;9.93;7.33;;;;;;;16.40;100.00;100294.88;5027779;28;20538;-69
2023/07/24 04:52:20;;;;;;;8.40;6.87;;;;;;;16.73;100.00;100331.88;5031437;28;20203;-69
2023/07/24 04:54:46;;;;;;;8.27;6.80;;;;;;;16.53;100.00;100297.22;5030065;28;20464;-69
2023/07/24 04:57:11;;;;;;;9.60;7.57;;;;;;;16.73;100.00;100340.81;5027918;28;20621;-69
2023/07/24 04:59:37;;;;;;;11.67;7.80;;;;;;;16.77;100.00;100349.28;5034354;28;20528;-69
2023/07/24 05:02:02;;;;;;;10.80;8.33;;;;;;;16.65;100.00;100346.66;5033130;28;20187;-69
2023/07/24 05:04:28;;;;;;;9.20;7.63;;;;;;;16.70;100.00;100362.97;5028803;28;20701;-69
2023/07/24 05:06:53;;;;;;;9.93;8.33;;;;;;;16.40;100.00;100309.25;5027335;28;20220;-69
2023/07/24 05:09:19;;;;;;;12.63;8.17;;;;;;;16.49;100.00;100296.13;5035747;28;20191;-70
2023/07/24 05:11:44;;;;;;;8.47;7.57;;;;;;;16.75;100.00;100323.47;5029380;28;20664;-69
2023/07/24 05:14:10;;;;;;;9.60;8.27;;;;;;;16.74;100.00;100333.50;5036393;28;20580;-69
2023/07/24 05:16:36;;;;;;;9.83;8.77;;;;;;;16.70;100.00;100337.78;5028065;28;20273;-69
2023/07/24 05:19:01;;;;;;;9.37;8.27;;;;;;;16.58;100.00;100305.44;5029257;28;20184;-69
2023/07/24 05:21:26;;;;;;;9.97;8.97;;;;;;;16.65;100.00;100329.59;5035431;28;20672;-69
2023/07/24 05:23:52;;;;;;;9.90;8.90;;;;;;;16.75;100.00;100342.44;5025715;28;20200;-69
2023/07/24 05:26:18;;;;;;;9.20;8.30;;;;;;;16.71;100.00;100336.72;5030496;28;20217;-69
2023/07/24 05:28:43;;;;;;;9.60;8.60;;;;;;;16.75;100.00;100331.59;5030008;28;25056;-69
2023/07/24 05:31:09;;;;;;;8.80;7.90;;;;;;;16.73;100.00;100342.72;5024210;28;20576;-69
2023/07/24 05:33:34;;;;;;;8.60;7.70;;;;;;;16.82;100.00;100343.94;5024724;28;20196;-70
2023/07/24 05:36:04;;;;;;;8.33;7.50;;;;;;;16.79;100.00;100341.72;5027551;28;20750;-69
2023/07/24 05:38:30;;;;;;;8.10;7.33;;;;;;;16.77;100.00;100341.16;5024910;28;20267;-69
2023/07/24 05:41:00;;;;;;;9.30;8.30;;;;;;;16.50;100.00;100314.78;5029936;28;20545;-69
2023/07/24 05:43:26;;;;;;;7.80;7.07;;;;;;;16.73;100.00;100329.16;5029122;28;20152;-69
2023/07/24 05:45:52;;;;;;;9.27;8.33;;;;;;;16.87;100.00;100351.31;5030049;28;20519;-69
2023/07/24 05:48:18;;;;;;;9.17;7.23;;;;;;;16.90;100.00;100359.75;5030316;28;20440;-69
2023/07/24 05:50:43;;;;;;;9.37;7.77;;;;;;;16.83;100.00;100334.72;5032226;28;20445;-69
2023/07/24 05:53:09;;;;;;;8.25;7.00;;;;;;;16.92;100.00;100354.91;5030564;28;20196;-69
2023/07/24 05:55:34;;;;;;;9.10;8.20;;;;;;;16.87;100.00;100338.59;5028078;28;20196;-69
2023/07/24 05:57:59;;;;;;;8.10;7.30;;;;;;;16.93;100.00;100350.31;5027497;28;20243;-69
2023/07/24 06:00:25;;;;;;;10.45;8.00;;;;;;;16.90;100.00;100339.97;5028409;28;20219;-70
2023/07/24 06:03:11;;;;;;;8.95;8.05;;;;;;;16.86;100.00;100349.66;5005416;28;20582;-70
2023/07/24 06:05:39;;;;;;;10.20;8.45;;;;;;;16.37;100.00;100293.50;5027377;28;20234;-70
2023/07/24 06:08:05;;;;;;;7.90;7.10;;;;;;;16.77;100.00;100318.66;5025139;28;20446;-71
2023/07/24 06:10:30;;;;;;;7.53;6.70;;;;;;;17.00;100.00;100341.97;5026892;28;20218;-67
2023/07/24 06:12:56;;;;;;;11.73;7.20;;;;;;;16.87;100.00;100322.31;5033180;28;20211;-68
2023/07/24 06:15:21;;;;;;;7.23;6.53;;;;;;;16.99;100.00;100324.91;5031683;28;20195;-67
2023/07/24 06:17:47;;;;;;;8.40;7.13;;;;;;;17.13;100.00;100349.72;5031826;28;20204;-68
2023/07/24 06:20:12;;;;;;;9.80;7.43;;;;;;;17.00;100.00;100344.69;5027423;28;20784;-68
2023/07/24 06:22:37;;;;;;;7.50;6.70;;;;;;;17.10;100.00;100342.09;5025821;28;20192;-70
2023/07/24 06:25:03;;;;;;;7.80;6.93;;;;;;;17.01;100.00;100340.88;5028286;28;20961;-70
2023/07/24 06:27:29;;;;;;;7.17;6.27;;;;;;;17.16;100.00;100338.38;5027093;28;20733;-70
2023/07/24 06:29:54;;;;;;;9.13;7.70;;;;;;;16.79;100.00;100303.81;5030069;28;20624;-70
2023/07/24 06:32:19;;;;;;;8.37;7.50;;;;;;;16.97;100.00;100347.91;5026759;28;20291;-70
2023/07/24 06:34:45;;;;;;;8.87;7.53;;;;;;;16.97;100.00;100329.75;5043607;28;20203;-70
2023/07/24 06:37:10;;;;;;;9.13;7.20;;;;;;;17.09;100.00;100346.69;5032658;28;20567;-70
2023/07/24 06:39:35;;;;;;;9.23;8.23;;;;;;;17.07;100.00;100345.31;5027640;28;20215;-70
2023/07/24 06:42:01;;;;;;;8.30;7.47;;;;;;;16.66;100.00;100293.31;5029303;28;20222;-70
2023/07/24 06:44:26;;;;;;;8.63;7.40;;;;;;;17.00;100.00;100336.56;5027104;28;20192;-70
2023/07/24 06:46:52;;;;;;;8.90;7.30;;;;;;;17.00;100.00;100336.56;5014470;28;20245;-70
2023/07/24 06:49:17;;;;;;;10.00;8.13;;;;;;;17.00;100.00;100344.69;5021130;28;20248;-70
2023/07/24 06:51:43;;;;;;;7.85;7.15;;;;;;;17.07;100.00;100339.91;5030297;28;20188;-70
2023/07/24 06:54:08;;;;;;;11.00;8.27;;;;;;;17.08;100.00;100330.69;5025031;28;20917;-70
2023/07/24 06:56:34;;;;;;;8.63;7.63;;;;;;;17.24;100.00;100337.06;5034891;28;20862;-70
2023/07/24 06:59:08;;;;;;;7.83;6.83;;;;;;;17.33;100.00;100332.84;5031361;28;20196;-69
2023/07/24 07:01:33;;;;;;;7.30;6.60;;;;;;;17.39;100.00;100299.31;5030727;28;21336;-69
2023/07/24 07:03:59;;;;;;;8.47;6.30;;;;;;;17.65;100.00;100329.31;5034056;28;20438;-70
2023/07/24 07:06:24;;;;;;;8.10;7.27;;;;;;;17.72;100.00;100330.75;5024182;28;20207;-70
2023/07/24 07:08:50;;;;;;;7.17;6.47;;;;;;;17.89;100.00;100319.00;5032324;28;20203;-70
2023/07/24 07:11:15;;;;;;;7.37;6.10;;;;;;;17.75;100.00;100296.88;5031780;28;20569;-70
2023/07/24 07:13:41;;;;;;;8.87;6.80;;;;;;;17.77;100.00;100311.81;5035638;28;20574;-70
2023/07/24 07:16:06;;;;;;;7.47;6.73;;;;;;;17.73;100.00;100291.69;5034457;28;20199;-70
2023/07/24 07:18:31;;;;;;;8.33;7.00;;;;;;;17.52;100.00;100241.91;5038061;28;20325;-70
2023/07/24 07:20:57;;;;;;;9.90;7.23;;;;;;;17.70;100.00;100284.09;5032929;28;20207;-71
2023/07/24 07:23:23;;;;;;;9.30;7.10;;;;;;;17.86;100.00;100274.22;5033720;28;20192;-71
2023/07/24 07:25:50;;;;;;;9.93;7.03;;;;;;;17.25;100.00;100197.81;5039582;28;20211;-70
2023/07/24 07:28:16;;;;;;;9.55;7.15;;;;;;;17.81;100.00;100260.59;5029799;28;20911;-70
2023/07/24 07:30:42;;;;;;;9.27;7.50;;;;;;;17.56;100.00;100231.38;5032549;28;20521;-70
2023/07/24 07:33:08;;;;;;;10.67;7.93;;;;;;;17.46;100.00;100217.75;5032785;28;20530;-70
2023/07/24 07:35:35;;;;;;;10.80;8.13;;;;;;;17.74;100.00;100247.25;5042111;28;25140;-69
2023/07/24 07:38:01;;;;;;;8.23;7.07;;;;;;;17.67;100.00;100238.50;5037299;28;20207;-70
2023/07/24 07:40:27;;;;;;;15.23;8.67;;;;;;;17.43;100.00;100223.69;5038990;28;20443;-70
2023/07/24 07:42:56;;;;;;;7.33;6.53;;;;;;;17.58;100.00;100226.50;5031781;28;20565;-70
2023/07/24 07:45:23;;;;;;;12.40;8.07;;;;;;;17.69;100.00;100222.78;5032829;28;20510;-69
2023/07/24 07:47:48;;;;;;;10.57;7.40;;;;;;;17.73;100.00;100225.78;5030450;28;20496;-70
2023/07/24 07:50:14;;;;;;;9.90;7.57;;;;;;;17.70;100.00;100216.28;5031469;28;20453;-70
2023/07/24 07:52:39;;;;;;;9.20;6.90;;;;;;;17.90;100.00;100226.47;5035808;28;20187;-69
2023/07/24 07:55:08;;;;;;;7.73;6.60;;;;;;;17.66;100.00;100171.78;5035680;28;20188;-69
2023/07/24 07:57:37;;;;;;;10.20;7.77;;;;;;;18.08;100.00;100211.69;5044524;28;20349;-70
2023/07/24 08:00:04;;;;;;;9.10;7.27;;;;;;;17.85;100.00;100164.06;5034147;28;20481;-70
2023/07/24 08:02:30;;;;;;;10.37;7.47;;;;;;;18.11;100.00;100200.28;5045645;28;20438;-70
2023/07/24 08:04:55;;;;;;;8.73;6.80;;;;;;;17.95;100.00;100157.88;5034041;28;20950;-70
2023/07/24 08:07:21;;;;;;;9.03;7.23;;;;;;;18.23;100.00;100176.47;5034269;28;20976;-69
2023/07/24 08:09:46;;;;;;;7.30;6.60;;;;;;;18.26;100.00;100151.50;5032393;28;20191;-70
2023/07/24 08:12:12;;;;;;;9.23;6.40;;;;;;;18.57;100.00;100150.75;5025762;28;20195;-69
2023/07/24 08:14:37;;;;;;;8.90;6.63;;;;;;;18.64;100.00;100141.25;5030413;28;20190;-70
2023/07/24 08:17:03;;;;;;;9.93;5.73;;;;;;;18.71;100.00;100130.13;5038196;28;20215;-69
2023/07/24 08:19:29;;;;;;;9.53;7.20;;;;;;;18.58;100.00;100120.63;5028935;28;20216;-70
2023/07/24 08:21:54;;;;;;;10.37;6.67;;;;;;;18.52;100.00;100108.13;5030983;28;20191;-70
2023/07/24 08:24:20;;;;;;;10.80;6.60;;;;;;;18.44;100.00;100082.31;5028899;28;25002;-69
2023/07/24 08:26:45;;;;;;;8.50;5.80;;;;;;;18.63;100.00;100093.47;5022003;28;20216;-70
2023/07/24 08:29:11;;;;;;;11.37;7.67;;;;;;;18.28;100.00;100073.31;5028340;28;21056;-69
2023/07/24 08:31:36;;;;;;;9.10;6.00;;;;;;;18.46;100.00;100082.03;5031563;28;20253;-69
2023/07/24 08:34:02;;;;;;;9.47;6.40;;;;;;;18.40;100.00;100091.25;5028125;28;20204;-70
2023/07/24 08:36:28;;;;;;;7.97;6.77;;;;;;;17.82;100.00;99999.94;5030168;28;20462;-69
2023/07/24 08:38:54;;;;;;;8.10;5.90;;;;;;;18.35;100.00;100077.69;5028803;28;20188;-69
2023/07/24 08:41:20;;;;;;;10.27;6.17;;;;;;;18.38;100.00;100082.56;5030269;28;20802;-69
2023/07/24 08:43:45;;;;;;;7.57;5.97;;;;;;;18.39;100.00;100078.75;5046070;28;20184;-70
2023/07/24 08:46:11;;;;;;;8.73;6.40;;;;;;;18.38;100.00;100069.00;5030445;28;20855;-70
2023/07/24 08:48:39;;;;;;;6.90;5.43;;;;;;;18.01;100.00;99999.44;5030234;28;20279;-70
2023/07/24 08:51:10;;;;;;;9.90;6.27;;;;;;;18.17;100.00;100017.38;5035201;28;20184;-70
2023/07/24 08:53:38;;;;;;;8.90;5.17;;;;;;;18.42;100.00;100056.50;5030814;28;20506;-69
2023/07/24 08:56:04;;;;;;;9.60;5.87;;;;;;;18.16;100.00;100025.78;5030528;28;20461;-69
2023/07/24 08:58:30;;;;;;;11.13;6.93;;;;;;;18.36;100.00;100041.28;5027456;28;20530;-70
2023/07/24 09:00:59;;;;;;;8.30;5.80;;;;;;;18.39;100.00;100030.69;5028733;28;20452;-70
2023/07/24 09:03:25;;;;;;;6.23;5.07;;;;;;;18.42;100.00;100029.34;5032144;28;20672;-69
2023/07/24 09:05:51;;;;;;;6.80;5.27;;;;;;;18.50;100.00;100026.09;5029511;28;20467;-70
2023/07/24 09:08:16;;;;;;;6.80;5.37;;;;;;;18.27;100.00;100003.81;5028098;28;20196;-70
2023/07/24 09:10:42;;;;;;;7.07;5.40;;;;;;;18.35;100.00;99996.22;5030962;28;20567;-69
2023/07/24 09:13:08;;;;;;;10.17;6.03;;;;;;;18.33;100.00;100020.13;5029649;28;20176;-70
2023/07/24 09:15:43;;;;;;;10.00;5.60;;;;;;;18.35;100.00;100021.47;5032506;28;20180;-70
2023/07/24 09:18:09;;;;;;;8.20;6.30;;;;;;;18.32;100.00;100019.31;5030230;28;20201;-69
2023/07/24 09:20:42;;;;;;;8.97;5.43;;;;;;;18.11;100.00;99982.34;5036515;28;20439;-70
2023/07/24 09:23:09;;;;;;;7.83;5.70;;;;;;;18.37;100.00;100008.47;5029657;28;20475;-70
2023/07/24 09:25:36;;;;;;;7.13;4.60;;;;;;;18.09;100.00;99963.63;5025303;28;20464;-69
2023/07/24 09:28:17;;;;;;;10.20;6.00;;;;;;;18.03;100.00;99965.53;5026572;28;20870;-70
2023/07/24 09:30:52;;;;;;;6.87;5.00;;;;;;;18.34;100.00;100005.44;5023890;28;20500;-70
2023/07/24 09:33:18;;;;;;;7.20;5.00;;;;;;;18.34;100.00;99972.88;5026734;28;21026;-70
2023/07/24 09:35:43;;;;;;;8.90;6.47;;;;;;;18.17;100.00;99951.44;5030667;28;20435;-69
2023/07/24 09:38:11;;;;;;;10.07;6.70;;;;;;;18.42;100.00;99980.47;5033680;28;20220;-69
2023/07/24 09:40:47;;;;;;;8.20;6.47;;;;;;;18.41;100.00;99976.13;5028198;28;20990;-69
2023/07/24 09:43:23;;;;;;;10.10;6.30;;;;;;;18.49;100.00;99976.41;5033744;28;21017;-70
2023/07/24 09:45:50;;;;;;;7.67;5.17;;;;;;;18.47;100.00;99972.34;5027960;28;20480;-69
2023/07/24 09:48:17;;;;;;;7.77;5.90;;;;;;;18.22;100.00;99935.94;5035286;28;20446;-69
2023/07/24 09:50:48;;;;;;;7.80;4.93;;;;;;;18.48;100.00;99955.75;5032894;28;20450;-70
2023/07/24 09:53:22;;;;;;;7.70;5.47;;;;;;;18.60;100.00;99944.63;5032531;28;20442;-70
2023/07/24 09:55:59;;;;;;;10.47;5.53;;;;;;;18.71;100.00;99943.50;5024585;28;20446;-70
2023/07/24 09:58:25;;;;;;;7.87;4.80;;;;;;;18.76;100.00;99936.50;5028580;28;20944;-70
2023/07/24 10:00:52;;;;;;;7.97;5.10;;;;;;;18.82;100.00;99921.81;5035377;28;20452;-69
2023/07/24 10:03:20;;;;;;;8.87;5.07;;;;;;;18.74;100.00;99894.09;5024322;28;20454;-72
2023/07/24 10:05:47;;;;;;;8.80;5.00;;;;;;;18.93;100.00;99897.03;5028473;28;20470;-70
2023/07/24 10:08:14;;;;;;;5.73;4.70;;;;;;;19.12;100.00;99899.13;5028944;28;20453;-70
2023/07/24 10:10:40;;;;;;;10.00;5.60;;;;;;;18.96;100.00;99849.47;5028489;28;20446;-70
2023/07/24 10:13:06;;;;;;;8.90;5.03;;;;;;;19.35;100.00;99874.03;5026553;28;20437;-70
2023/07/24 10:15:32;;;;;;;9.87;5.87;;;;;;;19.24;100.00;99861.59;5041583;28;20180;-70
2023/07/24 10:18:06;;;;;;;10.07;6.50;;;;;;;19.22;100.00;99831.13;5028445;28;20462;-70
2023/07/24 10:20:39;;;;;;;6.90;4.90;;;;;;;19.50;100.00;99835.06;5029718;28;20454;-70
2023/07/24 10:23:10;;;;;;;7.83;4.90;;;;;;;19.52;100.00;99800.19;5041632;28;21004;-70
2023/07/24 10:25:43;;;;;;;9.57;6.00;;;;;;;19.83;100.00;99800.81;5032241;28;20574;-70
2023/07/24 10:28:16;;;;;;;9.00;5.03;;;;;;;19.64;100.00;99794.41;5027536;28;20979;-70
2023/07/24 10:30:42;;;;;;;9.37;5.30;;;;;;;19.45;100.00;99731.75;5031260;28;20931;-70
2023/07/24 10:33:11;;;;;;;10.57;6.87;;;;;;;19.74;100.00;99778.03;5032726;28;20915;-70
2023/07/24 10:35:46;;;;;;;13.13;6.50;;;;;;;19.92;100.00;99773.00;5030117;28;20446;-70
2023/07/24 10:38:16;;;;;;;9.00;5.60;;;;;;;20.17;100.00;99763.75;5038686;28;20503;-71
2023/07/24 10:40:44;;;;;;;8.60;5.30;;;;;;;20.00;100.00;99748.69;5029345;28;20779;-71
2023/07/24 10:43:12;;;;;;;8.00;5.83;;;;;;;20.43;100.00;99750.66;5031667;28;20484;-71
2023/07/24 10:45:40;;;;;;;7.00;5.43;;;;;;;20.57;100.00;99750.78;5031733;28;20527;-71
2023/07/24 10:48:06;;;;;;;9.20;6.50;;;;;;;20.76;100.00;99743.47;5029450;28;21168;-70
2023/07/24 10:50:39;;;;;;;11.00;6.57;;;;;;;20.72;100.00;99751.41;5029905;28;20451;-69
2023/07/24 10:53:05;;;;;;;8.73;6.60;;;;;;;20.69;100.00;99732.94;5031353;28;20267;-70
2023/07/24 10:55:30;;;;;;;9.73;7.30;;;;;;;20.71;100.00;99727.16;5031694;28;20635;-70
2023/07/24 10:57:56;;;;;;;7.20;6.50;;;;;;;20.73;100.00;99706.69;5029160;28;20277;-70
2023/07/24 11:00:21;;;;;;;10.50;6.87;;;;;;;20.68;100.00;99695.06;5031502;28;20279;-70
2023/07/24 11:02:47;;;;;;;12.83;7.33;;;;;;;20.44;100.00;99655.03;5029863;28;20605;-70
2023/07/24 11:05:14;;;;;;;8.70;5.77;;;;;;;20.74;100.00;99674.81;5029156;28;20203;-70
2023/07/24 11:07:39;;;;;;;6.60;5.73;;;;;;;20.56;100.00;99640.22;5026189;28;20633;-70
2023/07/24 11:10:23;;;;;;;8.67;6.50;;;;;;;20.40;100.00;99654.03;5030419;28;20450;-70
2023/07/24 11:12:51;;;;;;;8.57;6.60;;;;;;;20.35;100.00;99666.88;5029887;28;20192;-70